TimeEDT,TemperatureF,Dew PointF,Humidity,Sea Level PressureIn,VisibilityMPH,Wind Direction,Wind SpeedMPH,Gust SpeedMPH,PrecipitationIn,Events,Conditions,WindDirDegrees,DateUTC
12:15 AM,60.6,57.6,90,30.37,10.0,Calm,Calm,-,N/A,,Clear,0,2013-08-26 04:15:00
12:35 AM,60.4,57.6,90,30.37,10.0,Calm,Calm,-,N/A,,Clear,0,2013-08-26 04:35:00
12:55 AM,59.0,57.4,94,30.37,10.0,Calm,Calm,-,N/A,,Clear,0,2013-08-26 04:55:00
1:15 AM,58.5,57.6,97,30.37,10.0,Calm,Calm,-,N/A,,Clear,0,2013-08-26 05:15:00
1:35 AM,58.3,57.2,96,30.37,10.0,Calm,Calm,-,N/A,,Clear,0,2013-08-26 05:35:00
1:55 AM,57.6,56.7,97,30.36,10.0,Calm,Calm,-,N/A,,Clear,0,2013-08-26 05:55:00
2:15 AM,57.2,56.7,98,30.36,10.0,Calm,Calm,-,N/A,,Clear,0,2013-08-26 06:15:00
2:35 AM,57.2,56.7,98,30.36,10.0,Calm,Calm,-,N/A,,Clear,0,2013-08-26 06:35:00
2:55 AM,56.8,56.5,99,30.35,10.0,Calm,Calm,-,N/A,,Clear,0,2013-08-26 06:55:00
3:15 AM,56.5,56.3,99,30.35,10.0,Calm,Calm,-,N/A,,Clear,0,2013-08-26 07:15:00
3:35 AM,56.5,56.3,99,30.34,10.0,Calm,Calm,-,N/A,,Clear,0,2013-08-26 07:35:00
3:55 AM,56.5,55.2,96,30.34,10.0,Calm,Calm,-,N/A,,Clear,0,2013-08-26 07:55:00
4:15 AM,56.5,55.4,96,30.34,10.0,Calm,Calm,-,N/A,,Clear,0,2013-08-26 08:15:00
4:35 AM,55.9,55.4,98,30.33,10.0,Calm,Calm,-,N/A,,Clear,0,2013-08-26 08:35:00
4:55 AM,56.3,55.4,97,30.33,10.0,Calm,Calm,-,N/A,,Clear,0,2013-08-26 08:55:00
5:15 AM,55.6,55.4,99,30.33,10.0,Calm,Calm,-,N/A,,Clear,0,2013-08-26 09:15:00
5:35 AM,55.2,54.7,98,30.32,10.0,Calm,Calm,-,N/A,,Clear,0,2013-08-26 09:35:00
5:55 AM,55.2,55.2,100,30.32,10.0,Calm,Calm,-,N/A,,Clear,0,2013-08-26 09:55:00
6:15 AM,54.5,53.8,97,30.32,10.0,Calm,Calm,-,N/A,,Clear,0,2013-08-26 10:15:00
6:35 AM,54.5,54.3,99,30.32,7.0,Calm,Calm,-,N/A,,Mostly Cloudy,0,2013-08-26 10:35:00
6:55 AM,53.8,53.6,99,30.33,10.0,Calm,Calm,-,N/A,,Scattered Clouds,0,2013-08-26 10:55:00
7:15 AM,53.6,53.4,99,30.33,10.0,Calm,Calm,-,N/A,,Clear,0,2013-08-26 11:15:00
7:35 AM,54.5,54.5,100,30.33,10.0,Calm,Calm,-,N/A,,Clear,0,2013-08-26 11:35:00
7:55 AM,55.8,55.2,98,30.34,10.0,Calm,Calm,-,N/A,,Clear,0,2013-08-26 11:55:00
8:15 AM,57.6,56.1,95,30.34,10.0,Calm,Calm,-,N/A,,Clear,0,2013-08-26 12:15:00
8:35 AM,59.4,57.6,94,30.34,10.0,Calm,Calm,-,N/A,,Clear,0,2013-08-26 12:35:00
8:55 AM,61.2,59.0,93,30.34,10.0,Calm,Calm,-,N/A,,Clear,0,2013-08-26 12:55:00
9:15 AM,63.1,59.5,88,30.34,10.0,Calm,Calm,-,N/A,,Clear,0,2013-08-26 13:15:00
9:35 AM,64.8,60.1,85,30.34,10.0,Calm,Calm,-,N/A,,Clear,0,2013-08-26 13:35:00
9:55 AM,65.7,59.7,81,30.35,10.0,Calm,Calm,-,N/A,,Clear,0,2013-08-26 13:55:00
10:15 AM,66.7,60.8,81,30.35,10.0,Calm,Calm,-,N/A,,Clear,0,2013-08-26 14:15:00
10:35 AM,68.4,59.5,73,30.35,10.0,Calm,Calm,-,N/A,,Clear,0,2013-08-26 14:35:00
10:55 AM,69.4,58.5,68,30.34,10.0,Calm,Calm,-,N/A,,Clear,0,2013-08-26 14:55:00
11:15 AM,71.1,57.4,62,30.34,10.0,SW,3.5,-,N/A,,Clear,220,2013-08-26 15:15:00
11:35 AM,72.3,57.9,60,30.33,10.0,West,4.6,-,N/A,,Clear,260,2013-08-26 15:35:00
11:55 AM,72.3,56.7,58,30.33,10.0,Calm,Calm,-,N/A,,Clear,0,2013-08-26 15:55:00
12:15 PM,73.2,57.4,57,30.32,10.0,West,3.5,-,N/A,,Clear,280,2013-08-26 16:15:00
12:35 PM,73.8,58.1,58,30.32,10.0,Calm,Calm,-,N/A,,Clear,0,2013-08-26 16:35:00
12:55 PM,74.3,59.0,59,30.31,10.0,Calm,Calm,-,N/A,,Clear,0,2013-08-26 16:55:00
1:15 PM,75.0,58.5,56,30.29,10.0,SW,3.5,-,N/A,,Clear,230,2013-08-26 17:15:00
1:35 PM,75.7,55.9,50,30.29,10.0,Calm,Calm,-,N/A,,Clear,0,2013-08-26 17:35:00
1:55 PM,77.0,55.4,47,30.28,10.0,Calm,Calm,-,N/A,,Clear,0,2013-08-26 17:55:00
2:15 PM,76.6,54.0,45,30.27,10.0,NW,3.5,-,N/A,,Clear,310,2013-08-26 18:15:00
2:35 PM,77.2,52.3,42,30.27,10.0,Calm,Calm,-,N/A,,Clear,0,2013-08-26 18:35:00
2:55 PM,77.0,54.3,45,30.26,10.0,Calm,Calm,-,N/A,,Clear,0,2013-08-26 18:55:00
3:15 PM,78.1,51.6,40,30.25,10.0,NW,3.5,-,N/A,,Clear,320,2013-08-26 19:15:00
3:35 PM,78.8,48.9,35,30.24,10.0,WNW,3.5,-,N/A,,Clear,290,2013-08-26 19:35:00
3:55 PM,78.8,50.5,37,30.23,10.0,Calm,Calm,-,N/A,,Clear,0,2013-08-26 19:55:00
4:15 PM,77.5,56.5,48,30.23,10.0,Calm,Calm,-,N/A,,Clear,0,2013-08-26 20:15:00
4:35 PM,78.1,56.7,48,30.21,10.0,Calm,Calm,-,N/A,,Clear,0,2013-08-26 20:35:00
4:55 PM,78.1,56.7,48,30.21,10.0,Calm,Calm,-,N/A,,Clear,0,2013-08-26 20:55:00
5:15 PM,79.0,57.4,47,30.19,10.0,South,3.5,-,N/A,,Clear,170,2013-08-26 21:15:00
5:35 PM,78.8,57.2,47,30.20,10.0,SSW,4.6,-,N/A,,Clear,210,2013-08-26 21:35:00
5:55 PM,78.1,58.1,50,30.19,10.0,SSW,3.5,-,N/A,,Clear,200,2013-08-26 21:55:00
6:15 PM,77.9,59.2,52,30.19,10.0,Calm,Calm,-,N/A,,Clear,0,2013-08-26 22:15:00
6:35 PM,78.3,58.6,51,30.18,10.0,SSW,3.5,-,N/A,,Clear,210,2013-08-26 22:35:00
6:55 PM,76.6,63.3,63,30.18,10.0,Calm,Calm,-,N/A,,Clear,0,2013-08-26 22:55:00
7:15 PM,73.9,64.4,72,30.17,10.0,Calm,Calm,-,N/A,,Clear,0,2013-08-26 23:15:00
7:35 PM,72.9,64.0,74,30.17,10.0,Calm,Calm,-,N/A,,Clear,0,2013-08-26 23:35:00
7:55 PM,71.4,63.5,76,30.17,10.0,Calm,Calm,-,N/A,,Clear,0,2013-08-26 23:55:00
8:15 PM,70.3,63.7,79,30.17,10.0,Calm,Calm,-,N/A,,Clear,0,2013-08-27 00:15:00
8:35 PM,70.5,62.8,76,30.17,10.0,Calm,Calm,-,N/A,,Clear,0,2013-08-27 00:35:00
8:55 PM,67.6,62.8,84,30.17,10.0,Calm,Calm,-,N/A,,Clear,0,2013-08-27 00:55:00
9:15 PM,67.1,62.1,84,30.17,10.0,Calm,Calm,-,N/A,,Clear,0,2013-08-27 01:15:00
9:35 PM,66.6,62.1,85,30.17,10.0,Calm,Calm,-,N/A,,Clear,0,2013-08-27 01:35:00
9:55 PM,66.6,61.7,84,30.17,10.0,Calm,Calm,-,N/A,,Clear,0,2013-08-27 01:55:00
10:15 PM,66.2,61.2,84,30.18,10.0,Calm,Calm,-,N/A,,Clear,0,2013-08-27 02:15:00
10:35 PM,65.3,60.8,85,30.19,10.0,Calm,Calm,-,N/A,,Clear,0,2013-08-27 02:35:00
10:55 PM,65.1,60.6,85,30.18,10.0,Calm,Calm,-,N/A,,Clear,0,2013-08-27 02:55:00
11:15 PM,64.6,60.3,86,30.19,10.0,Calm,Calm,-,N/A,,Clear,0,2013-08-27 03:15:00
11:35 PM,64.0,59.7,86,30.18,10.0,Calm,Calm,-,N/A,,Clear,0,2013-08-27 03:35:00
11:55 PM,63.5,59.5,87,30.19,10.0,Calm,Calm,-,N/A,,Clear,0,2013-08-27 03:55:00